Time;durP1;ratioP1;P1;durP2;ratioP2;P2;SDS_P1;SDS_P2;PMS_P1;PMS_P2;Temp;Humidity;BMP_temperature;BMP_pressure;BME280_temperature;BME280_humidity;BME280_pressure;Samples;Min_cycle;Max_cycle;Signal;HPM_P1;HPM_P2
2023/02/04 00:05:57;;;;;;;0.70;0.70;;;9.80;99.90;;;;;;21191298;27;20393;-68
2023/02/04 00:16:02;;;;;;;0.20;0.10;;;9.40;99.90;;;;;;21237838;27;20397;-68
2023/02/04 00:26:06;;;;;;;0.20;0.10;;;9.00;99.90;;;;;;21237570;27;20477;-67
2023/02/04 00:36:11;;;;;;;0.20;0.10;;;8.70;99.90;;;;;;21237022;27;20451;-67
2023/02/04 00:46:15;;;;;;;0.20;0.10;;;8.90;99.90;;;;;;21229540;27;20779;-68
2023/02/04 00:56:20;;;;;;;0.20;0.10;;;8.60;99.90;;;;;;21153206;27;20754;-68
2023/02/04 01:06:24;;;;;;;0.20;0.10;;;8.60;99.90;;;;;;21151950;28;20493;-67
2023/02/04 01:16:29;;;;;;;0.20;0.10;;;8.40;99.90;;;;;;21151470;28;20406;-68
2023/02/04 01:26:33;;;;;;;0.20;0.10;;;9.10;99.90;;;;;;21223285;27;20859;-67
2023/02/04 01:36:38;;;;;;;0.20;0.10;;;9.50;99.90;;;;;;21168957;27;20533;-68
2023/02/04 01:46:42;;;;;;;0.93;0.87;;;9.50;99.90;;;;;;21196273;27;20400;-68
2023/02/04 01:56:50;;;;;;;0.20;0.10;;;9.00;99.90;;;;;;21232686;27;20397;-67
2023/02/04 02:06:57;;;;;;;0.20;0.10;;;8.80;99.90;;;;;;21168019;27;20404;-67
2023/02/04 02:17:02;;;;;;;0.20;0.10;;;8.50;99.90;;;;;;21146804;28;20402;-67
2023/02/04 02:27:10;;;;;;;0.20;0.10;;;8.40;99.90;;;;;;21146356;28;20453;-67
2023/02/04 02:37:14;;;;;;;0.20;0.10;;;8.20;99.90;;;;;;21145642;28;21023;-68
2023/02/04 02:47:22;;;;;;;0.20;0.10;;;8.10;99.90;;;;;;21196815;28;20484;-68
2023/02/04 02:57:26;;;;;;;0.20;0.10;;;8.30;99.90;;;;;;21230250;27;20508;-68
2023/02/04 03:07:31;;;;;;;0.20;0.00;;;9.00;99.90;;;;;;21230065;27;20397;-67
2023/02/04 03:17:35;;;;;;;0.20;0.10;;;9.10;99.90;;;;;;21228160;28;20431;-68
2023/02/04 03:27:40;;;;;;;0.20;0.10;;;8.50;99.90;;;;;;21229246;27;20398;-67
2023/02/04 03:37:44;;;;;;;0.20;0.10;;;8.00;99.90;;;;;;21229282;27;20412;-66
2023/02/04 03:47:49;;;;;;;0.20;0.10;;;7.90;99.90;;;;;;21241419;27;20769;-66
2023/02/04 03:57:53;;;;;;;0.20;0.10;;;7.70;99.90;;;;;;21243479;27;20409;-68
2023/02/04 04:07:59;;;;;;;0.20;0.10;;;7.60;99.90;;;;;;21172443;27;20391;-67
2023/02/04 04:18:04;;;;;;;0.20;0.10;;;8.30;99.90;;;;;;21138680;28;20455;-68
2023/02/04 04:28:09;;;;;;;0.20;0.10;;;8.10;99.90;;;;;;21156001;28;20448;-68
2023/02/04 04:38:13;;;;;;;0.20;0.10;;;8.40;99.90;;;;;;21136962;28;20925;-69
2023/02/04 04:48:20;;;;;;;0.20;0.10;;;8.80;99.90;;;;;;21213498;27;20892;-67
2023/02/04 04:58:24;;;;;;;0.20;0.10;;;9.10;99.90;;;;;;21237543;27;20880;-68
2023/02/04 05:08:29;;;;;;;0.20;0.10;;;9.40;99.90;;;;;;21236425;27;20396;-67
2023/02/04 05:18:33;;;;;;;0.20;0.10;;;9.40;99.90;;;;;;21237151;27;20432;-67
2023/02/04 05:28:38;;;;;;;0.20;0.10;;;9.50;99.90;;;;;;21235959;27;20397;-67
2023/02/04 05:38:42;;;;;;;0.20;0.10;;;10.10;99.90;;;;;;21235193;27;20401;-67
2023/02/04 05:48:48;;;;;;;0.20;0.10;;;10.00;99.90;;;;;;21232473;27;20431;-68
2023/02/04 05:58:51;;;;;;;0.20;0.10;;;9.70;99.90;;;;;;21233552;27;20409;-68
2023/02/04 06:08:57;;;;;;;0.20;0.10;;;9.60;99.90;;;;;;21230168;27;21416;-67
2023/02/04 06:19:01;;;;;;;0.20;0.10;;;9.30;99.90;;;;;;21231424;27;20416;-66
2023/02/04 06:29:06;;;;;;;0.20;0.10;;;9.20;99.90;;;;;;21222730;27;20397;-66
2023/02/04 06:39:10;;;;;;;0.20;0.10;;;8.70;99.90;;;;;;21225607;27;20470;-66
2023/02/04 06:49:15;;;;;;;0.20;0.10;;;8.80;99.90;;;;;;21230302;27;20496;-68
2023/02/04 06:59:19;;;;;;;0.20;0.10;;;7.90;99.90;;;;;;21228899;27;20401;-67
2023/02/04 07:09:24;;;;;;;0.20;0.10;;;7.40;99.90;;;;;;21228769;27;20904;-66
2023/02/04 07:19:28;;;;;;;0.20;0.10;;;7.20;99.90;;;;;;21217182;27;20400;-68
2023/02/04 07:29:33;;;;;;;0.20;0.10;;;7.00;99.90;;;;;;21242703;27;20420;-66
2023/02/04 07:39:37;;;;;;;0.20;0.10;;;7.20;99.90;;;;;;21242586;27;20460;-68
2023/02/04 07:49:42;;;;;;;0.20;0.10;;;10.10;99.90;;;;;;21241792;27;20895;-66
2023/02/04 07:59:46;;;;;;;0.20;0.10;;;10.60;99.90;;;;;;21241453;27;20434;-67
2023/02/04 08:09:51;;;;;;;0.20;0.10;;;11.40;99.90;;;;;;21241906;27;20492;-68
2023/02/04 08:19:56;;;;;;;0.20;0.00;;;12.50;99.90;;;;;;21239945;27;20493;-68
2023/02/04 08:30:02;;;;;;;0.20;0.03;;;12.80;99.90;;;;;;21239219;27;20397;-68
2023/02/04 08:40:06;;;;;;;0.20;0.00;;;13.40;99.90;;;;;;21238162;27;20454;-67
2023/02/04 08:50:12;;;;;;;0.20;0.10;;;12.80;99.90;;;;;;21161869;27;20485;-68
2023/02/04 09:00:16;;;;;;;0.20;0.10;;;12.70;99.90;;;;;;21133307;28;20550;-67
2023/02/04 09:10:22;;;;;;;0.20;0.10;;;12.90;99.90;;;;;;21163044;27;20393;-69
2023/02/04 09:20:27;;;;;;;0.20;0.10;;;13.50;99.90;;;;;;21233950;27;20451;-68
2023/02/04 09:30:33;;;;;;;0.20;0.10;;;13.90;99.90;;;;;;21233331;27;20405;-69
2023/02/04 09:40:43;;;;;;;0.20;0.10;;;14.00;99.90;;;;;;21232002;27;20508;-68
2023/02/04 09:50:49;;;;;;;0.20;0.10;;;14.10;99.90;;;;;;21231328;27;20408;-68
2023/02/04 10:00:58;;;;;;;0.20;0.10;;;14.50;99.90;;;;;;21231605;27;20415;-68
2023/02/04 10:11:05;;;;;;;0.20;0.10;;;15.40;99.90;;;;;;21257957;27;20934;-68
2023/02/04 10:21:16;;;;;;;0.20;0.10;;;16.50;99.90;;;;;;21258196;27;20474;-68
2023/02/04 10:31:34;;;;;;;0.20;0.10;;;16.80;99.90;;;;;;21234783;27;20427;-68
2023/02/04 10:41:39;;;;;;;0.20;0.10;;;17.70;99.90;;;;;;21225508;27;20385;-65
2023/02/04 10:51:45;;;;;;;0.20;0.10;;;18.00;99.90;;;;;;21230243;27;20420;-68
2023/02/04 11:01:49;;;;;;;0.20;0.03;;;17.20;99.90;;;;;;21253992;27;20479;-69
2023/02/04 11:11:58;;;;;;;0.20;0.07;;;17.30;99.90;;;;;;21252473;27;20492;-69
2023/02/04 11:22:21;;;;;;;0.20;0.00;;;18.90;99.90;;;;;;21253064;27;20762;-68
2023/02/04 11:32:36;;;;;;;0.20;0.00;;;20.10;99.80;;;;;;21248731;27;20404;-67
2023/02/04 11:42:42;;;;;;;0.20;0.00;;;20.30;99.80;;;;;;21254837;27;20778;-68
2023/02/04 11:52:47;;;;;;;0.20;0.00;;;21.30;96.50;;;;;;21253460;27;20401;-66
2023/02/04 12:02:56;;;;;;;0.20;0.10;;;22.00;97.20;;;;;;21247919;27;20880;-67
2023/02/04 12:13:02;;;;;;;0.20;0.00;;;21.70;96.80;;;;;;21235487;27;20405;-68
2023/02/04 12:23:07;;;;;;;0.20;0.03;;;22.30;96.70;;;;;;21235074;27;20403;-68
2023/02/04 12:33:12;;;;;;;0.20;0.00;;;22.60;93.20;;;;;;21234972;27;20484;-70
2023/02/04 12:43:17;;;;;;;0.20;0.00;;;24.10;91.40;;;;;;21236568;27;20401;-69
2023/02/04 12:53:22;;;;;;;0.20;0.00;;;25.70;90.50;;;;;;21216863;27;20404;-68
2023/02/04 13:03:26;;;;;;;0.20;0.00;;;26.90;89.00;;;;;;21233554;27;20385;-67
2023/02/04 13:13:32;;;;;;;0.20;0.00;;;27.00;88.60;;;;;;21229083;27;20416;-68
2023/02/04 13:23:36;;;;;;;0.20;0.00;;;28.10;84.80;;;;;;21232841;27;20400;-68
2023/02/04 13:33:41;;;;;;;0.20;0.00;;;27.20;77.40;;;;;;21233524;27;20778;-68
2023/02/04 13:43:45;;;;;;;0.20;0.00;;;27.80;78.50;;;;;;21232409;27;20526;-68
2023/02/04 13:53:51;;;;;;;0.20;0.00;;;27.70;79.80;;;;;;21231140;27;20907;-68
2023/02/04 14:03:55;;;;;;;0.30;0.30;;;27.60;92.00;;;;;;21210187;27;20483;-68
2023/02/04 14:14:00;;;;;;;0.20;0.00;;;28.10;85.60;;;;;;21229073;27;20733;-69
2023/02/04 14:24:04;;;;;;;0.20;0.00;;;28.30;92.10;;;;;;21210790;27;20937;-67
2023/02/04 14:34:10;;;;;;;0.20;0.03;;;29.00;91.60;;;;;;21228327;27;20401;-69
2023/02/04 14:44:19;;;;;;;0.20;0.00;;;25.60;99.00;;;;;;21226356;27;20406;-68
2023/02/04 14:54:24;;;;;;;0.20;0.00;;;26.00;99.20;;;;;;21222266;27;20417;-67
2023/02/04 15:04:29;;;;;;;0.20;0.00;;;26.20;98.20;;;;;;21217949;28;20389;-67
2023/02/04 15:14:35;;;;;;;0.20;0.00;;;25.60;99.90;;;;;;21222027;28;20421;-68
2023/02/04 15:24:39;;;;;;;0.20;0.00;;;25.60;99.90;;;;;;21224053;27;20457;-66
2023/02/04 15:34:44;;;;;;;0.20;0.00;;;26.00;99.90;;;;;;21204462;28;20401;-68
2023/02/04 15:44:47;;;;;;;0.20;0.10;;;24.80;99.90;;;;;;21234883;27;20488;-66
2023/02/04 15:54:53;;;;;;;0.20;0.00;;;22.60;99.90;;;;;;21235317;27;20401;-67
2023/02/04 16:04:57;;;;;;;0.20;0.00;;;22.10;99.90;;;;;;21234960;27;20418;-69
2023/02/04 16:15:02;;;;;;;0.20;0.00;;;22.10;99.90;;;;;;21234478;27;20417;-68
2023/02/04 16:25:07;;;;;;;0.20;0.08;;;22.60;99.90;;;;;;21213419;27;20415;-68
2023/02/04 16:35:13;;;;;;;0.20;0.00;;;20.90;99.90;;;;;;21218163;27;20500;-69
2023/02/04 16:45:17;;;;;;;0.20;0.10;;;19.00;99.90;;;;;;21226818;27;20385;-68
2023/02/04 16:55:24;;;;;;;0.20;0.10;;;17.40;99.90;;;;;;21208492;27;20405;-68
2023/02/04 17:05:28;;;;;;;1.10;1.10;;;17.20;99.90;;;;;;21227380;27;20412;-68
2023/02/04 17:15:33;;;;;;;0.20;0.10;;;16.40;99.90;;;;;;21227102;27;20417;-67
2023/02/04 17:25:38;;;;;;;0.20;0.10;;;16.10;99.90;;;;;;21228217;27;20452;-67
2023/02/04 17:35:43;;;;;;;0.20;0.10;;;15.60;99.90;;;;;;21228951;27;21049;-68
2023/02/04 17:45:47;;;;;;;0.20;0.10;;;15.40;99.90;;;;;;21210455;27;20400;-68
2023/02/04 17:55:52;;;;;;;0.20;0.10;;;15.60;99.90;;;;;;21224366;27;20748;-69
2023/02/04 18:05:57;;;;;;;0.20;0.10;;;17.00;99.90;;;;;;21224565;27;20697;-69
2023/02/04 18:16:16;;;;;;;0.20;0.10;;;17.20;99.70;;;;;;21222107;27;20401;-68
2023/02/04 18:26:24;;;;;;;0.20;0.10;;;17.50;98.50;;;;;;21218361;27;20405;-68
2023/02/04 18:36:33;;;;;;;0.20;0.10;;;17.30;98.20;;;;;;21200383;27;20410;-70
2023/02/04 18:46:41;;;;;;;0.20;0.10;;;17.30;97.70;;;;;;21138957;28;20391;-68
2023/02/04 18:56:48;;;;;;;0.20;0.10;;;17.10;97.10;;;;;;21142489;28;20401;-69
2023/02/04 19:06:55;;;;;;;0.20;0.10;;;17.00;96.90;;;;;;21220681;27;20872;-69
2023/02/04 19:17:20;;;;;;;0.20;0.10;;;17.20;96.70;;;;;;21229192;27;20495;-69
2023/02/04 19:27:31;;;;;;;0.20;0.10;;;16.90;97.30;;;;;;21218846;27;20400;-68
2023/02/04 19:37:41;;;;;;;0.20;0.10;;;16.70;97.10;;;;;;21235994;27;20413;-69
2023/02/04 19:47:45;;;;;;;0.20;0.10;;;16.50;97.20;;;;;;21235016;27;20408;-69
2023/02/04 19:57:52;;;;;;;0.20;0.03;;;16.40;97.70;;;;;;21233759;27;20462;-68
2023/02/04 20:07:59;;;;;;;0.20;0.10;;;16.10;98.50;;;;;;21234732;27;20404;-68
2023/02/04 20:18:14;;;;;;;0.20;0.10;;;16.10;98.50;;;;;;21235249;27;20842;-68
2023/02/04 20:28:34;;;;;;;0.20;0.00;;;15.50;99.90;;;;;;21213476;27;20397;-68
2023/02/04 20:38:39;;;;;;;0.20;0.10;;;14.80;99.90;;;;;;21232891;27;21138;-67
2023/02/04 20:48:44;;;;;;;0.20;0.10;;;14.10;99.90;;;;;;21229891;27;20404;-69
2023/02/04 20:58:50;;;;;;;0.20;0.10;;;14.20;99.90;;;;;;21230807;27;20967;-67
2023/02/04 21:08:55;;;;;;;0.20;0.10;;;13.40;99.90;;;;;;21228173;27;20416;-68
2023/02/04 21:19:01;;;;;;;0.20;0.10;;;13.90;99.90;;;;;;21233569;27;20496;-69
2023/02/04 21:29:05;;;;;;;0.20;0.10;;;12.70;99.90;;;;;;21235064;27;20405;-69
2023/02/04 21:39:10;;;;;;;0.20;0.00;;;12.20;99.90;;;;;;21230546;27;20400;-69
2023/02/04 21:49:15;;;;;;;0.20;0.00;;;11.90;99.90;;;;;;21232045;27;21173;-70
2023/02/04 21:59:21;;;;;;;0.20;0.00;;;11.30;99.90;;;;;;21165632;27;20410;-67
2023/02/04 22:09:24;;;;;;;0.20;0.10;;;11.80;99.90;;;;;;21175054;27;20944;-69
2023/02/04 22:19:30;;;;;;;0.20;0.00;;;11.80;99.90;;;;;;21206716;27;20400;-70
2023/02/04 22:29:34;;;;;;;0.20;0.00;;;12.00;99.90;;;;;;21225607;27;20404;-67
2023/02/04 22:39:39;;;;;;;0.20;0.10;;;12.00;99.90;;;;;;21226479;27;20831;-68
2023/02/04 22:49:45;;;;;;;0.20;0.10;;;12.10;99.90;;;;;;21214347;27;20435;-68
2023/02/04 22:59:50;;;;;;;0.20;0.10;;;12.10;99.90;;;;;;21207806;28;20415;-68
2023/02/04 23:09:54;;;;;;;0.20;0.10;;;12.10;99.90;;;;;;21213767;28;20396;-68
2023/02/04 23:19:59;;;;;;;0.20;0.10;;;12.00;99.90;;;;;;21225666;27;20397;-68
2023/02/04 23:30:05;;;;;;;0.20;0.10;;;12.10;99.90;;;;;;21224989;28;20465;-67
2023/02/04 23:40:11;;;;;;;0.20;0.10;;;12.20;99.90;;;;;;21191743;28;20408;-68
2023/02/04 23:50:14;;;;;;;0.20;0.10;;;12.30;99.90;;;;;;21190726;28;20430;-68
